Portada
METAR-TAF:

METAR-TAF

Aeropuertos :

Irkutsk, Rusia

Aeropuerto Internacional de Irkutsk

latitud: 52-16N, longitud: 104-19E, altitud: 513 m

Observación

El informe se hizo hace 45 minutos, a las 10:30 UTC
Viento 10 kt del sur-sureste
Temperatura 18°C
Humedad 37%
Presión 1008 hPa
Visibilidad 10 km o más
sin nubes por debajo de 1500 m y sin presencia de cumulonimbus.

METAR: UIII 291030Z 16005MPS CAVOK 18/03 Q1008 R12/CLRD60 NOSIG RMK QFE714/0952

Hora: 19:15 (11:15 UTC)

Pronóstico

El informe se hizo hace 3 horas y 15 minutos, a las 08:00 UTC
Pronóstico válido del 29 a las 09 UTC al 30 a las 09 UTC
Viento 10 kt del sur-sureste
Visibilidad 10 km o más
sin nubes por debajo de 1500 m y sin presencia de cumulonimbus.

TAF: UIII 290800Z 2909/3009 16005MPS CAVOK

Observaciones y pronósticos meteorológicos de más de 4000 aeropuertos (mensajes METAR y TAF).

Los puntos amarillos y rojos representan las estaciones disponibles.

Ponga el ratón en el punto deseado para ver el nombre de la estación.

Haga clic para ver las observaciones y los pronósticos meteorológicos.

Para cambiar el mapa : haga clic en los botones verdes con una cruz de color negro para hacer un zoom, en el botón verde con un guión para alejar o en las flechas verdes para mapas adyacentes.


METAR-TAF: